Latest Weather Observations for Moss Vale

IDN60801

Issued at 2:33 pm EST Saturday 27 August 2016 (issued every 30 minutes, with the page automatically refreshed every 10 minutes)

About weather observations | Map of weather stations | Latest weather observations for NSW | Other Formats
Station Details ID: 068239 Name: MOSS VALE AWS Lat: -34.53 Lon: 150.42 Height: 678.4 m
Data from the previous 72 hours. | See also: Recent months at Moss Vale
Date/Time
EST
Temp
°C
App
Temp
°C
Dew
Point
°C
Rel
Hum
%
Delta-T
°C
Wind Press
QNH
hPa
Press
MSL
hPa
Rain since
9am
mm
Dir  Spd
km/h
Gust
km/h
Spd
kts
Gust
kts
27/02:30pm 12.7 6.7 -1.6 37 5.9 WNW 20 35 11 19 1020.3 1020.8 0.0
27/02:00pm 12.9 7.1 0.0 41 5.5 WNW 20 28 11 15 1020.5 1021.0 0.0
27/01:30pm 12.0 6.3 -3.4 34 6.1 NW 17 28 9 15 1020.6 1021.1 0.0
27/01:00pm 11.5 5.9 -2.7 37 5.7 WNW 17 26 9 14 1020.8 1021.3 0.0
27/12:30pm 11.1 5.1 -3.4 36 5.7 WNW 19 24 10 13 1021.3 1021.8 0.0
27/12:00pm 10.9 5.5 -1.5 42 5.0 WNW 17 28 9 15 1021.8 1022.3 0.0
27/11:30am 9.9 5.2 0.8 53 3.9 W 15 24 8 13 1022.3 1022.9 0.0
27/11:00am 9.3 4.4 -0.8 49 4.1 NW 15 22 8 12 1022.7 1023.2 0.0
27/10:30am 8.4 2.7 -0.4 54 3.6 NW 19 26 10 14 1022.8 1023.3 0.0
27/10:00am 7.7 2.1 0.2 59 3.1 WNW 19 22 10 12 1023.0 1023.5 0.0
27/09:30am 6.6 1.5 0.5 65 2.5 WNW 17 20 9 11 1022.9 1023.4 0.0
27/09:00am 5.8 1.0 0.2 67 2.2 N 15 22 8 12 1022.7 1023.2 0.2
27/08:30am 4.6 0.9 2.1 84 1.0 WNW 11 15 6 8 1022.4 1023.0 0.2
27/08:00am 2.2 -0.9 1.5 95 0.3 WSW 7 9 4 5 1022.3 1022.9 0.2
27/07:30am 0.0 -3.3 0.0 100 0.0 N 7 9 4 5 1022.1 1022.6 0.2
27/07:00am 0.0 - - - - CALM 0 0 0 0 1022.0 1022.5 0.0
27/06:39am -1.2 - - - - WNW 2 6 1 3 1022.0 1022.5 0.0
27/06:30am -1.4 -4.7 -1.4 100 0.0 N 6 6 3 3 1022.0 1022.5 0.0
27/06:16am -2.2 -5.8 -2.2 100 0.0 WNW 7 11 4 6 1021.9 1022.4 0.0
27/06:00am -0.3 - - - - N 9 11 5 6 1021.8 1022.3 0.0
27/05:30am -0.5 -4.3 -0.5 100 0.0 NE 9 11 5 6 1021.8 1022.3 0.0
27/05:00am -0.3 - - - - WSW 11 13 6 7 1021.6 1022.1 0.0
27/04:30am -0.9 -5.1 -0.9 100 0.0 NE 11 11 6 6 1021.3 1021.8 0.0
27/04:00am -0.9 -3.8 -0.9 100 0.0 SW 4 6 2 3 1021.2 1021.7 0.0
27/03:30am 0.2 - - - - N 9 11 5 6 1021.2 1021.7 0.0
27/03:00am -0.6 - - - - ENE 6 7 3 4 1021.3 1021.8 0.0
27/02:57am -0.5 - - - - ENE 7 9 4 5 1021.3 1021.8 0.0
27/02:30am -0.6 - - - - WNW 2 7 1 4 1021.3 1021.8 0.0
27/02:27am -0.5 - - - - CALM 0 7 0 4 1021.4 1021.9 0.0
27/02:03am -0.2 - - - - W 4 6 2 3 1021.5 1022.0 0.0
27/02:00am -0.3 - - - - W 4 6 2 3 1021.5 1022.0 0.0
27/01:30am -0.4 -2.4 -0.4 100 0.0 CALM 0 0 0 0 1021.6 1022.1 0.0
27/01:10am 0.1 - - - - CALM 0 0 0 0 1021.7 1022.2 0.0
27/01:00am 0.4 - - - - CALM 0 0 0 0 1021.7 1022.2 0.0
27/12:30am 1.1 - - - - CALM 0 0 0 0 1021.5 1022.0 0.0
27/12:28am 1.0 - - - - CALM 0 0 0 0 1021.5 1022.0 0.0
27/12:00am 0.4 - - - - CALM 0 0 0 0 1021.7 1022.2 0.0
 
Date/Time
EST
Temp
°C
App
Temp
°C
Dew
Point
°C
Rel
Hum
%
Delta-T
°C
Wind Press
QNH
hPa
Press
MSL
hPa
Rain since
9am
mm
Dir  Spd
km/h
Gust
km/h
Spd
kts
Gust
kts
26/11:30pm 0.4 -2.3 0.4 100 0.0 N 4 9 2 5 1021.7 1022.2 0.0
26/11:28pm 0.4 -2.7 0.4 100 0.0 NNE 6 9 3 5 1021.7 1022.2 0.0
26/11:26pm 0.8 - - - - ENE 7 9 4 5 1021.7 1022.2 0.0
26/11:04pm 1.2 -1.9 1.2 100 0.0 NW 7 11 4 6 1021.7 1022.2 0.0
26/11:00pm 1.7 - - - - W 9 11 5 6 1021.6 1022.1 0.0
26/10:30pm 2.4 - - - - N 9 9 5 5 1021.4 1021.9 0.0
26/10:16pm 2.2 - - - - NW 9 9 5 5 1021.3 1021.8 0.0
26/10:00pm 2.3 - - - - WNW 7 7 4 4 1021.3 1021.8 0.0
26/09:30pm 2.2 0.5 2.1 99 0.0 CALM 0 0 0 0 1020.9 1021.5 0.0
26/09:00pm 3.3 1.8 3.2 99 0.0 CALM 0 0 0 0 1020.9 1021.5 0.0
26/08:30pm 3.8 1.0 3.2 96 0.3 SSW 7 9 4 5 1020.7 1021.2 0.0
26/08:00pm 4.6 1.8 2.1 84 1.0 NNW 6 7 3 4 1020.5 1021.0 0.0
26/07:30pm 5.3 2.5 2.1 80 1.3 WSW 6 7 3 4 1020.4 1020.9 0.0
26/07:00pm 5.7 2.8 2.4 79 1.4 SW 7 9 4 5 1020.3 1020.8 0.0
26/06:30pm 6.2 3.2 1.9 74 1.8 S 7 9 4 5 1019.9 1020.4 0.0
26/06:00pm 7.2 3.9 2.3 71 2.1 S 9 11 5 6 1019.3 1019.8 0.0
26/05:30pm 7.8 4.5 2.5 69 2.3 SE 9 11 5 6 1018.9 1019.4 0.0
26/05:00pm 8.5 4.0 2.3 65 2.7 SE 15 22 8 12 1018.6 1019.1 0.0
26/04:30pm 9.1 4.2 2.0 61 3.1 SE 17 22 9 12 1018.4 1018.8 0.0
26/04:00pm 10.0 5.3 0.6 52 4.0 SSE 15 19 8 10 1018.0 1018.4 0.0
26/03:30pm 10.3 5.8 -0.2 48 4.4 SSE 13 19 7 10 1017.7 1018.2 0.0
26/03:00pm 10.4 5.0 -1.0 45 4.7 S 17 22 9 12 1017.4 1017.9 0.0
26/02:30pm 10.9 5.9 1.4 52 4.1 S 17 24 9 13 1017.3 1017.8 0.0
26/02:00pm 10.8 5.5 -0.3 46 4.7 SSW 17 35 9 19 1017.5 1018.0 0.0
26/01:30pm 10.4 5.9 -0.4 47 4.5 SSW 13 22 7 12 1017.6 1018.1 0.0
26/01:00pm 9.8 4.7 -2.2 43 4.8 SSW 15 22 8 12 1018.0 1018.4 0.0
26/12:30pm 9.4 4.7 -1.6 46 4.4 S 13 20 7 11 1018.3 1018.7 0.0
26/12:00pm 9.2 4.5 0.6 55 3.6 SSW 15 28 8 15 1018.5 1019.0 0.0
26/11:30am 8.5 2.9 0.0 55 3.5 SSW 19 26 10 14 1018.7 1019.2 0.0
26/11:00am 7.8 2.0 0.1 58 3.2 S 20 30 11 16 1018.9 1019.4 0.0
26/10:30am 7.1 0.6 0.1 61 2.9 SSW 24 32 13 17 1019.0 1019.5 0.0
26/10:00am 6.5 -0.8 0.2 64 2.6 SSW 28 35 15 19 1018.7 1019.2 0.0
26/09:30am 6.0 0.3 0.6 68 2.2 SSW 20 30 11 16 1018.8 1019.3 0.0
26/09:00am 5.2 -0.4 -0.2 68 2.1 SW 19 24 10 13 1018.8 1019.3 0.0
26/08:30am 4.1 0.1 0.4 77 1.5 SW 11 15 6 8 1018.5 1019.0 0.0
26/08:00am 2.7 -1.6 1.1 89 0.6 SW 13 17 7 9 1018.2 1018.6 0.0
26/07:30am 0.8 -2.5 0.4 97 0.2 WSW 7 9 4 5 1018.1 1018.5 0.0
26/07:00am 0.5 -3.9 0.5 100 0.0 NNE 13 15 7 8 1017.6 1018.1 0.0
26/06:30am 0.5 -3.9 0.5 100 0.0 SSW 13 17 7 9 1017.4 1017.9 0.0
26/06:00am 0.6 -3.4 0.6 100 0.0 SW 11 15 6 8 1017.0 1017.4 0.0
26/05:30am 1.1 -3.6 1.1 100 0.0 SW 15 19 8 10 1016.5 1016.9 0.0
26/05:00am 1.3 -3.0 1.3 100 0.0 SW 13 17 7 9 1016.1 1016.6 0.0
26/04:30am 1.6 -1.8 1.6 100 0.0 SW 9 15 5 8 1015.8 1016.2 0.0
26/04:00am 1.8 -2.4 1.8 100 0.0 SW 13 19 7 10 1015.5 1015.9 0.0
26/03:30am 2.2 -1.6 1.9 98 0.1 SW 11 15 6 8 1015.2 1015.6 0.0
26/03:00am 2.1 -1.5 0.9 92 0.5 SW 9 13 5 7 1015.0 1015.4 0.0
26/02:30am 2.5 -1.7 1.6 94 0.4 SW 13 19 7 10 1014.9 1015.3 0.0
26/02:00am 2.8 -2.1 2.2 96 0.2 SSW 17 26 9 14 1015.2 1015.6 0.0
26/01:58am 2.8 -2.4 2.2 96 0.2 SSW 19 26 10 14 1015.2 1015.6 0.0
26/01:30am 3.7 -1.0 3.4 98 0.1 S 17 28 9 15 1015.3 1015.7 0.0
26/01:00am 4.0 -1.3 1.9 86 0.9 SSW 19 22 10 12 1015.3 1015.7 0.0
26/12:30am 3.8 -1.5 1.8 87 0.8 S 19 26 10 14 1015.2 1015.6 0.0
26/12:00am 3.2 -0.9 2.0 92 0.5 SW 13 19 7 10 1015.1 1015.5 0.0
 
Date/Time
EST
Temp
°C
App
Temp
°C
Dew
Point
°C
Rel
Hum
%
Delta-T
°C
Wind Press
QNH
hPa
Press
MSL
hPa
Rain since
9am
mm
Dir  Spd
km/h
Gust
km/h
Spd
kts
Gust
kts
25/11:30pm 2.8 -2.3 0.5 85 0.9 SW 17 22 9 12 1014.9 1015.3 0.0
25/11:00pm 2.9 -1.5 0.3 83 1.0 SW 13 17 7 9 1015.0 1015.4 0.0
25/10:30pm 3.3 -1.8 0.5 82 1.1 SW 17 20 9 11 1014.5 1014.9 0.0
25/10:00pm 3.6 -2.1 0.5 80 1.2 NNE 20 26 11 14 1014.4 1014.8 0.0
25/09:30pm 3.9 -1.8 0.6 79 1.3 N 20 28 11 15 1014.3 1014.7 0.0
25/09:00pm 4.3 -0.8 0.6 77 1.5 NNW 17 24 9 13 1014.3 1014.7 0.0
25/08:30pm 4.7 -0.4 0.5 74 1.7 WNW 17 26 9 14 1014.3 1014.7 0.0
25/08:00pm 5.3 -1.1 0.9 73 1.8 NNW 24 32 13 17 1014.0 1014.4 0.0
25/07:30pm 6.1 -1.0 1.2 71 2.0 WNW 28 41 15 22 1013.3 1013.6 0.0
25/07:00pm 6.7 0.4 1.8 71 2.1 WNW 24 37 13 20 1012.9 1013.3 0.0
25/06:30pm 7.0 1.7 2.1 71 2.1 WNW 19 24 10 13 1012.4 1012.8 0.0
25/06:00pm 7.3 3.4 1.4 66 2.5 WNW 11 17 6 9 1012.1 1012.4 0.0
25/05:30pm 7.9 3.6 1.1 62 2.9 N 13 19 7 10 1011.8 1012.1 0.0
25/05:00pm 9.2 4.6 1.4 58 3.4 WNW 15 20 8 11 1011.2 1011.6 0.0
25/04:30pm 9.6 4.0 1.5 57 3.5 SW 20 30 11 16 1011.0 1011.4 0.0
25/04:00pm 8.7 3.1 1.1 59 3.2 SW 20 30 11 16 1010.9 1011.3 0.0
25/03:30pm 10.2 3.8 0.8 52 4.0 NW 24 35 13 19 1010.8 1011.1 0.0
25/03:00pm 9.9 3.1 0.5 52 4.0 WNW 26 37 14 20 1010.5 1010.8 0.0
25/02:30pm 9.9 2.4 1.0 54 3.8 SW 30 44 16 24 1010.3 1010.6 0.0
25/02:00pm 10.1 3.0 1.5 55 3.7 SW 28 37 15 20 1010.2 1010.5 0.0
25/01:30pm 9.7 2.7 1.8 58 3.4 SW 28 43 15 23 1010.0 1010.3 0.0
25/01:00pm 9.8 3.5 3.5 65 2.9 SW 26 37 14 20 1009.8 1010.2 0.0
25/12:30pm 9.4 3.1 3.8 68 2.5 SW 26 39 14 21 1010.3 1010.6 0.0
25/12:00pm 7.5 0.1 2.0 68 2.4 SW 30 41 16 22 1010.5 1010.8 0.0
25/11:30am 8.4 1.1 2.6 67 2.5 SW 30 46 16 25 1010.4 1010.7 0.0
25/11:00am 7.7 1.3 3.2 73 2.0 W 26 39 14 21 1010.6 1010.9 0.0
25/10:30am 7.7 1.0 3.4 74 1.9 SW 28 39 15 21 1010.6 1010.9 0.0
25/10:00am 6.3 0.1 2.0 74 1.8 SW 24 37 13 20 1010.5 1010.8 0.0
25/09:30am 5.7 0.1 3.4 85 1.0 SW 22 30 12 16 1010.6 1010.9 0.0
25/09:00am 5.4 -0.5 3.9 90 0.7 SW 24 33 13 18 1010.5 1010.8 21.6
25/08:30am 5.1 -0.3 4.4 95 0.3 SW 22 32 12 17 1010.5 1010.8 21.6
25/08:00am 4.7 -0.7 4.3 97 0.2 SW 22 32 12 17 1010.2 1010.5 21.6
25/07:30am 4.5 0.4 4.4 99 0.0 SW 15 19 8 10 1009.8 1010.2 21.6
25/07:00am 4.3 0.2 4.3 100 0.0 SW 15 22 8 12 1009.5 1009.8 21.6
25/06:30am 4.1 -0.4 4.1 100 0.0 SW 17 22 9 12 1009.2 1009.5 21.6
25/06:00am 4.0 -0.9 4.0 100 0.0 SW 19 24 10 13 1008.8 1009.1 21.6
25/05:30am 4.0 -0.9 3.9 99 0.0 SW 19 24 10 13 1008.1 1008.4 21.6
25/05:00am 4.0 -0.2 4.0 100 0.0 SW 15 20 8 11 1007.9 1008.2 21.6
25/04:30am 4.0 -0.2 4.0 100 0.0 SW 15 19 8 10 1007.8 1008.1 21.6
25/04:00am 3.9 -0.3 3.9 100 0.0 SSW 15 19 8 10 1007.7 1008.0 21.6
25/03:30am 4.0 -0.9 4.0 100 0.0 SW 19 24 10 13 1007.8 1008.1 21.6
25/03:00am 4.0 -0.9 4.0 100 0.0 SW 19 26 10 14 1007.8 1008.1 21.4
25/02:51am 4.0 -1.1 4.0 100 0.0 SW 20 35 11 19 1007.9 1008.2 21.4
25/02:30am 4.1 -2.5 4.0 99 0.0 SSW 28 41 15 22 1008.0 1008.3 21.2
25/02:00am 4.3 -1.5 4.3 100 0.0 SW 24 32 13 17 1008.1 1008.4 20.8
25/01:30am 4.4 - - - - SSW 20 28 11 15 1008.0 1008.3 20.2
25/01:00am 4.5 - - - - SSW 20 30 11 16 1008.1 1008.4 20.0
25/12:30am 4.8 - - - - SW 20 28 11 15 1008.1 1008.4 19.6
25/12:00am 4.8 - - - - S 22 30 12 16 1008.1 1008.4 19.2
 
Date/Time
EST
Temp
°C
App
Temp
°C
Dew
Point
°C
Rel
Hum
%
Delta-T
°C
Wind Press
QNH
hPa
Press
MSL
hPa
Rain since
9am
mm
Dir  Spd
km/h
Gust
km/h
Spd
kts
Gust
kts
24/11:30pm 4.9 - - - - SSW 19 26 10 14 1008.1 1008.4 18.8
24/11:00pm 5.0 - - - - S 20 28 11 15 1007.9 1008.2 18.4
24/10:48pm 5.1 - - - - S 19 28 10 15 1008.0 1008.3 18.2
24/10:30pm 5.0 -0.3 5.0 100 0.0 S 22 32 12 17 1008.1 1008.4 18.0
24/10:00pm 4.9 - - - - S 22 32 12 17 1008.1 1008.4 17.8
24/09:30pm 4.9 0.0 4.9 100 0.0 S 20 32 11 17 1008.6 1008.9 16.4
24/09:11pm 4.8 0.4 4.8 100 0.0 SSW 17 24 9 13 1008.8 1009.1 15.6
24/09:00pm 4.9 -0.8 4.9 100 0.0 SSW 24 32 13 17 1009.0 1009.3 15.4
24/08:30pm 5.0 - - - - SSW 20 30 11 16 1008.8 1009.1 13.8
24/08:00pm 5.4 - - - - SSW 24 33 13 18 1008.7 1009.0 13.0
24/07:48pm 5.4 - - - - S 24 33 13 18 1008.6 1008.9 12.8
24/07:39pm 5.3 - - - - S 22 32 12 17 1008.8 1009.1 12.6
24/07:30pm 5.2 - - - - SSW 22 28 12 15 1008.9 1009.2 12.4
24/07:00pm 5.2 - - - - S 28 41 15 22 1008.8 1009.1 11.8
24/06:30pm 5.4 - - - - SSW 24 32 13 17 1009.1 1009.4 10.8
24/06:00pm 5.7 - - - - S 28 39 15 21 1008.6 1008.9 9.4
24/05:56pm 5.7 - - - - S 30 41 16 22 1008.5 1008.8 9.2
24/05:39pm 6.0 - - - - S 22 30 12 16 1008.6 1008.9 8.6
24/05:38pm 6.0 - - - - S 24 30 13 16 1008.5 1008.8 8.4
24/05:30pm 6.0 - - - - S 22 30 12 16 1008.3 1008.7 8.0
24/05:21pm 6.1 - - - - S 24 30 13 16 1008.3 1008.7 7.6
24/05:13pm 6.2 - - - - S 22 28 12 15 1008.0 1008.3 7.2
24/05:10pm 6.3 - - - - S 22 28 12 15 1008.1 1008.4 7.2
24/05:00pm 6.5 - - - - S 20 26 11 14 1008.2 1008.5 6.8
24/04:50pm 6.5 - - - - S 20 28 11 15 1008.2 1008.5 6.0
24/04:30pm 6.8 - - - - S 20 28 11 15 1008.1 1008.4 4.8
24/04:00pm 7.0 - - - - SSE 24 35 13 19 1007.6 1007.9 4.2
24/03:35pm 7.1 - - - - SSE 24 33 13 18 1007.8 1008.1 3.8
24/03:30pm 7.2 - - - - SSE 22 32 12 17 1007.9 1008.2 3.6
24/03:14pm 7.3 - - - - SSE 22 32 12 17 1008.2 1008.5 3.6
24/03:00pm 7.4 - - - - SSE 24 32 13 17 1008.3 1008.7 3.4

Other Formats:

Comma delimited format used in spreadsheet applications
http://www.bom.gov.au/fwo/IDN60801/IDN60801.94746.axf

JavaScript Object Notation format (JSON) in row-major order
http://www.bom.gov.au/fwo/IDN60801/IDN60801.94746.json